sensor_id;sensor_type;location;lat;lon;timestamp;temperature;humidity
39951;DHT22;25629;51.444;-2.606;2024-03-08T00:00:08;6.30;1.00
39951;DHT22;25629;51.444;-2.606;2024-03-08T00:02:38;6.30;1.00
39951;DHT22;25629;51.444;-2.606;2024-03-08T00:05:04;6.20;93.90
39951;DHT22;25629;51.444;-2.606;2024-03-08T00:07:30;6.20;99.90
39951;DHT22;25629;51.444;-2.606;2024-03-08T00:09:56;6.20;99.90
39951;DHT22;25629;51.444;-2.606;2024-03-08T00:12:21;6.20;99.90
39951;DHT22;25629;51.444;-2.606;2024-03-08T00:14:47;6.20;99.90
39951;DHT22;25629;51.444;-2.606;2024-03-08T00:17:12;6.20;99.90
39951;DHT22;25629;51.444;-2.606;2024-03-08T00:19:38;6.20;99.90
39951;DHT22;25629;51.444;-2.606;2024-03-08T00:22:05;6.20;99.90
39951;DHT22;25629;51.444;-2.606;2024-03-08T00:24:30;6.20;99.90
39951;DHT22;25629;51.444;-2.606;2024-03-08T00:26:56;6.20;99.90
39951;DHT22;25629;51.444;-2.606;2024-03-08T00:29:21;6.20;99.90
39951;DHT22;25629;51.444;-2.606;2024-03-08T00:31:47;6.20;99.90
39951;DHT22;25629;51.444;-2.606;2024-03-08T00:34:13;6.20;99.90
39951;DHT22;25629;51.444;-2.606;2024-03-08T00:36:38;6.20;99.90
39951;DHT22;25629;51.444;-2.606;2024-03-08T00:39:04;6.20;99.90
39951;DHT22;25629;51.444;-2.606;2024-03-08T00:41:32;6.30;99.90
39951;DHT22;25629;51.444;-2.606;2024-03-08T00:43:58;6.30;99.90
39951;DHT22;25629;51.444;-2.606;2024-03-08T00:46:23;6.30;99.90
39951;DHT22;25629;51.444;-2.606;2024-03-08T00:48:49;6.30;99.90
39951;DHT22;25629;51.444;-2.606;2024-03-08T00:51:14;6.30;99.90
39951;DHT22;25629;51.444;-2.606;2024-03-08T00:53:43;6.20;99.90
39951;DHT22;25629;51.444;-2.606;2024-03-08T00:56:09;6.20;99.90
39951;DHT22;25629;51.444;-2.606;2024-03-08T00:58:37;6.20;1.00
39951;DHT22;25629;51.444;-2.606;2024-03-08T01:01:03;6.20;1.00
39951;DHT22;25629;51.444;-2.606;2024-03-08T01:03:28;6.10;1.00
39951;DHT22;25629;51.444;-2.606;2024-03-08T01:05:57;6.10;1.00
39951;DHT22;25629;51.444;-2.606;2024-03-08T01:08:22;6.10;1.00
39951;DHT22;25629;51.444;-2.606;2024-03-08T01:10:48;6.10;1.00
39951;DHT22;25629;51.444;-2.606;2024-03-08T01:13:16;6.10;1.00
39951;DHT22;25629;51.444;-2.606;2024-03-08T01:15:41;6.10;1.00
39951;DHT22;25629;51.444;-2.606;2024-03-08T01:18:07;6.10;1.00
39951;DHT22;25629;51.444;-2.606;2024-03-08T01:20:33;6.10;1.00
39951;DHT22;25629;51.444;-2.606;2024-03-08T01:22:58;6.10;1.00
39951;DHT22;25629;51.444;-2.606;2024-03-08T01:25:24;6.10;1.00
39951;DHT22;25629;51.444;-2.606;2024-03-08T01:27:49;6.00;1.00
39951;DHT22;25629;51.444;-2.606;2024-03-08T01:30:15;6.00;1.00
39951;DHT22;25629;51.444;-2.606;2024-03-08T01:32:42;6.00;1.00
39951;DHT22;25629;51.444;-2.606;2024-03-08T01:35:09;6.00;1.00
39951;DHT22;25629;51.444;-2.606;2024-03-08T01:37:35;6.10;1.00
39951;DHT22;25629;51.444;-2.606;2024-03-08T01:40:01;6.00;1.00
39951;DHT22;25629;51.444;-2.606;2024-03-08T01:42:28;6.00;1.00
39951;DHT22;25629;51.444;-2.606;2024-03-08T01:44:54;6.00;2.50
39951;DHT22;25629;51.444;-2.606;2024-03-08T01:47:20;5.90;7.40
39951;DHT22;25629;51.444;-2.606;2024-03-08T01:49:51;6.00;5.60
39951;DHT22;25629;51.444;-2.606;2024-03-08T01:52:17;6.00;7.70
39951;DHT22;25629;51.444;-2.606;2024-03-08T01:54:46;5.90;11.10
39951;DHT22;25629;51.444;-2.606;2024-03-08T01:57:11;6.00;10.40
39951;DHT22;25629;51.444;-2.606;2024-03-08T01:59:37;5.90;10.90
39951;DHT22;25629;51.444;-2.606;2024-03-08T02:02:03;6.00;13.10
39951;DHT22;25629;51.444;-2.606;2024-03-08T02:04:30;5.90;10.90
39951;DHT22;25629;51.444;-2.606;2024-03-08T02:06:56;5.80;20.80
39951;DHT22;25629;51.444;-2.606;2024-03-08T02:09:23;5.90;26.90
39951;DHT22;25629;51.444;-2.606;2024-03-08T02:11:50;5.90;26.10
39951;DHT22;25629;51.444;-2.606;2024-03-08T02:14:16;5.80;26.40
39951;DHT22;25629;51.444;-2.606;2024-03-08T02:16:42;5.80;40.00
39951;DHT22;25629;51.444;-2.606;2024-03-08T02:19:08;5.80;38.20
39951;DHT22;25629;51.444;-2.606;2024-03-08T02:21:35;5.80;46.30
39951;DHT22;25629;51.444;-2.606;2024-03-08T02:24:01;5.80;48.50
39951;DHT22;25629;51.444;-2.606;2024-03-08T02:26:27;5.80;54.30
39951;DHT22;25629;51.444;-2.606;2024-03-08T02:28:52;5.80;51.50
39951;DHT22;25629;51.444;-2.606;2024-03-08T02:31:18;5.70;69.60
39951;DHT22;25629;51.444;-2.606;2024-03-08T02:33:44;5.80;76.40
39951;DHT22;25629;51.444;-2.606;2024-03-08T02:36:09;5.80;78.20
39951;DHT22;25629;51.444;-2.606;2024-03-08T02:38:35;5.80;81.80
39951;DHT22;25629;51.444;-2.606;2024-03-08T02:41:01;5.90;76.70
39951;DHT22;25629;51.444;-2.606;2024-03-08T02:43:26;5.80;76.70
39951;DHT22;25629;51.444;-2.606;2024-03-08T02:45:53;5.90;79.80
39951;DHT22;25629;51.444;-2.606;2024-03-08T02:48:19;5.90;77.80
39951;DHT22;25629;51.444;-2.606;2024-03-08T02:50:44;5.90;78.40
39951;DHT22;25629;51.444;-2.606;2024-03-08T02:53:11;5.90;75.60
39951;DHT22;25629;51.444;-2.606;2024-03-08T02:55:37;5.80;81.00
39951;DHT22;25629;51.444;-2.606;2024-03-08T02:58:03;5.80;86.80
39951;DHT22;25629;51.444;-2.606;2024-03-08T03:00:29;5.90;87.40
39951;DHT22;25629;51.444;-2.606;2024-03-08T03:02:56;5.90;87.00
39951;DHT22;25629;51.444;-2.606;2024-03-08T03:05:25;5.90;83.20
39951;DHT22;25629;51.444;-2.606;2024-03-08T03:07:51;5.90;82.60
39951;DHT22;25629;51.444;-2.606;2024-03-08T03:10:17;5.90;87.00
39951;DHT22;25629;51.444;-2.606;2024-03-08T03:12:43;5.90;86.30
39951;DHT22;25629;51.444;-2.606;2024-03-08T03:15:10;6.00;85.90
39951;DHT22;25629;51.444;-2.606;2024-03-08T03:17:37;6.00;84.20
39951;DHT22;25629;51.444;-2.606;2024-03-08T03:20:04;6.00;82.30
39951;DHT22;25629;51.444;-2.606;2024-03-08T03:22:34;6.00;87.00
39951;DHT22;25629;51.444;-2.606;2024-03-08T03:25:00;6.00;84.10
39951;DHT22;25629;51.444;-2.606;2024-03-08T03:27:28;6.00;82.70
39951;DHT22;25629;51.444;-2.606;2024-03-08T03:29:55;6.00;80.50
39951;DHT22;25629;51.444;-2.606;2024-03-08T03:32:23;6.00;88.10
39951;DHT22;25629;51.444;-2.606;2024-03-08T03:34:49;6.10;86.00
39951;DHT22;25629;51.444;-2.606;2024-03-08T03:37:18;6.00;79.60
39951;DHT22;25629;51.444;-2.606;2024-03-08T03:39:45;6.00;84.00
39951;DHT22;25629;51.444;-2.606;2024-03-08T03:42:17;6.10;90.60
39951;DHT22;25629;51.444;-2.606;2024-03-08T03:44:46;6.10;85.50
39951;DHT22;25629;51.444;-2.606;2024-03-08T03:47:12;6.10;85.80
39951;DHT22;25629;51.444;-2.606;2024-03-08T03:49:38;6.10;79.50
39951;DHT22;25629;51.444;-2.606;2024-03-08T03:52:04;6.10;74.00
39951;DHT22;25629;51.444;-2.606;2024-03-08T03:54:30;6.00;81.10
39951;DHT22;25629;51.444;-2.606;2024-03-08T03:56:56;6.00;85.10
39951;DHT22;25629;51.444;-2.606;2024-03-08T03:59:21;6.00;92.00
39951;DHT22;25629;51.444;-2.606;2024-03-08T04:01:47;5.90;95.10
39951;DHT22;25629;51.444;-2.606;2024-03-08T04:04:13;6.00;97.40
39951;DHT22;25629;51.444;-2.606;2024-03-08T04:06:38;6.00;99.10
39951;DHT22;25629;51.444;-2.606;2024-03-08T04:09:04;6.00;98.90
39951;DHT22;25629;51.444;-2.606;2024-03-08T04:11:32;6.00;99.90
39951;DHT22;25629;51.444;-2.606;2024-03-08T04:13:57;6.00;99.90
39951;DHT22;25629;51.444;-2.606;2024-03-08T04:16:23;6.00;99.90
39951;DHT22;25629;51.444;-2.606;2024-03-08T04:18:49;6.10;99.90
39951;DHT22;25629;51.444;-2.606;2024-03-08T04:21:15;6.10;99.90
39951;DHT22;25629;51.444;-2.606;2024-03-08T04:23:41;6.10;99.90
39951;DHT22;25629;51.444;-2.606;2024-03-08T04:26:06;6.20;99.90
39951;DHT22;25629;51.444;-2.606;2024-03-08T04:28:32;6.20;99.40
39951;DHT22;25629;51.444;-2.606;2024-03-08T04:30:58;6.30;98.70
39951;DHT22;25629;51.444;-2.606;2024-03-08T04:33:26;6.30;95.10
39951;DHT22;25629;51.444;-2.606;2024-03-08T04:35:51;6.30;93.30
39951;DHT22;25629;51.444;-2.606;2024-03-08T04:38:17;6.30;92.70
39951;DHT22;25629;51.444;-2.606;2024-03-08T04:40:43;6.40;92.20
39951;DHT22;25629;51.444;-2.606;2024-03-08T04:43:08;6.40;89.70
39951;DHT22;25629;51.444;-2.606;2024-03-08T04:45:34;6.40;86.80
39951;DHT22;25629;51.444;-2.606;2024-03-08T04:47:59;6.40;87.30
39951;DHT22;25629;51.444;-2.606;2024-03-08T04:50:25;6.30;87.70
39951;DHT22;25629;51.444;-2.606;2024-03-08T04:52:54;6.40;88.90
39951;DHT22;25629;51.444;-2.606;2024-03-08T04:55:20;6.50;82.20
39951;DHT22;25629;51.444;-2.606;2024-03-08T04:57:46;6.40;75.00
39951;DHT22;25629;51.444;-2.606;2024-03-08T05:00:12;6.50;78.20
39951;DHT22;25629;51.444;-2.606;2024-03-08T05:02:38;6.60;65.40
39951;DHT22;25629;51.444;-2.606;2024-03-08T05:05:04;6.60;61.50
39951;DHT22;25629;51.444;-2.606;2024-03-08T05:07:31;6.60;63.50
39951;DHT22;25629;51.444;-2.606;2024-03-08T05:09:58;6.60;55.70
39951;DHT22;25629;51.444;-2.606;2024-03-08T05:12:24;6.50;53.90
39951;DHT22;25629;51.444;-2.606;2024-03-08T05:14:49;6.50;54.40
39951;DHT22;25629;51.444;-2.606;2024-03-08T05:17:15;6.60;53.70
39951;DHT22;25629;51.444;-2.606;2024-03-08T05:19:41;6.60;50.70
39951;DHT22;25629;51.444;-2.606;2024-03-08T05:22:07;6.60;39.50
39951;DHT22;25629;51.444;-2.606;2024-03-08T05:24:33;6.60;39.30
39951;DHT22;25629;51.444;-2.606;2024-03-08T05:26:59;6.60;44.70
39951;DHT22;25629;51.444;-2.606;2024-03-08T05:29:25;6.60;39.00
39951;DHT22;25629;51.444;-2.606;2024-03-08T05:31:52;6.60;39.30
39951;DHT22;25629;51.444;-2.606;2024-03-08T05:34:17;6.60;33.80
39951;DHT22;25629;51.444;-2.606;2024-03-08T05:36:45;6.60;29.10
39951;DHT22;25629;51.444;-2.606;2024-03-08T05:39:15;6.70;28.30
39951;DHT22;25629;51.444;-2.606;2024-03-08T05:41:40;6.70;21.40
39951;DHT22;25629;51.444;-2.606;2024-03-08T05:44:06;6.60;19.50
39951;DHT22;25629;51.444;-2.606;2024-03-08T05:46:33;6.60;21.40
39951;DHT22;25629;51.444;-2.606;2024-03-08T05:48:58;6.60;20.70
39951;DHT22;25629;51.444;-2.606;2024-03-08T05:51:24;6.60;21.20
39951;DHT22;25629;51.444;-2.606;2024-03-08T05:53:52;6.60;20.70
39951;DHT22;25629;51.444;-2.606;2024-03-08T05:56:19;6.60;26.60
39951;DHT22;25629;51.444;-2.606;2024-03-08T05:58:44;6.60;54.20
39951;DHT22;25629;51.444;-2.606;2024-03-08T06:01:11;6.60;33.90
39951;DHT22;25629;51.444;-2.606;2024-03-08T06:03:38;6.60;53.40
39951;DHT22;25629;51.444;-2.606;2024-03-08T06:06:13;6.50;42.20
39951;DHT22;25629;51.444;-2.606;2024-03-08T06:08:39;6.50;41.00
39951;DHT22;25629;51.444;-2.606;2024-03-08T06:11:04;6.50;39.00
39951;DHT22;25629;51.444;-2.606;2024-03-08T06:13:31;6.60;33.00
39951;DHT22;25629;51.444;-2.606;2024-03-08T06:15:57;6.60;29.70
39951;DHT22;25629;51.444;-2.606;2024-03-08T06:18:22;6.60;37.10
39951;DHT22;25629;51.444;-2.606;2024-03-08T06:20:48;6.60;25.20
39951;DHT22;25629;51.444;-2.606;2024-03-08T06:23:14;6.60;25.20
39951;DHT22;25629;51.444;-2.606;2024-03-08T06:25:43;6.50;22.60
39951;DHT22;25629;51.444;-2.606;2024-03-08T06:28:09;6.50;33.20
39951;DHT22;25629;51.444;-2.606;2024-03-08T06:30:35;6.40;34.20
39951;DHT22;25629;51.444;-2.606;2024-03-08T06:33:00;6.40;41.20
39951;DHT22;25629;51.444;-2.606;2024-03-08T06:35:26;6.30;42.60
39951;DHT22;25629;51.444;-2.606;2024-03-08T06:37:52;6.30;61.60
39951;DHT22;25629;51.444;-2.606;2024-03-08T06:40:17;6.30;56.90
39951;DHT22;25629;51.444;-2.606;2024-03-08T06:42:43;6.30;63.20
39951;DHT22;25629;51.444;-2.606;2024-03-08T06:45:08;6.20;64.30
39951;DHT22;25629;51.444;-2.606;2024-03-08T06:47:36;6.20;66.70
39951;DHT22;25629;51.444;-2.606;2024-03-08T06:50:02;6.20;66.10
39951;DHT22;25629;51.444;-2.606;2024-03-08T06:52:27;6.10;68.50
39951;DHT22;25629;51.444;-2.606;2024-03-08T06:54:53;6.00;73.20
39951;DHT22;25629;51.444;-2.606;2024-03-08T06:57:19;6.00;78.60
39951;DHT22;25629;51.444;-2.606;2024-03-08T06:59:47;6.00;78.70
39951;DHT22;25629;51.444;-2.606;2024-03-08T07:02:13;6.00;80.40
39951;DHT22;25629;51.444;-2.606;2024-03-08T07:04:39;6.00;78.90
39951;DHT22;25629;51.444;-2.606;2024-03-08T07:07:05;6.00;82.20
39951;DHT22;25629;51.444;-2.606;2024-03-08T07:09:30;6.00;86.50
39951;DHT22;25629;51.444;-2.606;2024-03-08T07:11:56;6.00;82.10
39951;DHT22;25629;51.444;-2.606;2024-03-08T07:14:22;6.00;84.30
39951;DHT22;25629;51.444;-2.606;2024-03-08T07:16:48;6.10;94.80
39951;DHT22;25629;51.444;-2.606;2024-03-08T07:19:14;6.10;99.10
39951;DHT22;25629;51.444;-2.606;2024-03-08T07:21:41;6.00;91.40
39951;DHT22;25629;51.444;-2.606;2024-03-08T07:24:07;6.10;88.90
39951;DHT22;25629;51.444;-2.606;2024-03-08T07:26:45;6.10;86.50
39951;DHT22;25629;51.444;-2.606;2024-03-08T07:29:15;6.10;77.40
39951;DHT22;25629;51.444;-2.606;2024-03-08T07:31:40;6.20;69.70
39951;DHT22;25629;51.444;-2.606;2024-03-08T07:34:27;6.20;54.30
39951;DHT22;25629;51.444;-2.606;2024-03-08T07:36:57;6.20;48.50
39951;DHT22;25629;51.444;-2.606;2024-03-08T07:39:23;6.30;35.40
39951;DHT22;25629;51.444;-2.606;2024-03-08T07:41:49;6.30;35.80
39951;DHT22;25629;51.444;-2.606;2024-03-08T07:44:18;6.40;23.70
39951;DHT22;25629;51.444;-2.606;2024-03-08T07:46:44;6.50;12.70
39951;DHT22;25629;51.444;-2.606;2024-03-08T07:49:09;6.50;1.00
39951;DHT22;25629;51.444;-2.606;2024-03-08T07:51:36;6.50;1.00
39951;DHT22;25629;51.444;-2.606;2024-03-08T07:54:02;6.60;1.00
39951;DHT22;25629;51.444;-2.606;2024-03-08T07:56:30;6.60;1.00
39951;DHT22;25629;51.444;-2.606;2024-03-08T07:58:56;6.60;1.00
39951;DHT22;25629;51.444;-2.606;2024-03-08T08:01:21;6.60;1.00
39951;DHT22;25629;51.444;-2.606;2024-03-08T08:03:47;6.70;1.00
39951;DHT22;25629;51.444;-2.606;2024-03-08T08:06:17;6.80;1.00
39951;DHT22;25629;51.444;-2.606;2024-03-08T08:08:42;6.80;1.00
39951;DHT22;25629;51.444;-2.606;2024-03-08T08:11:08;6.80;1.00
39951;DHT22;25629;51.444;-2.606;2024-03-08T08:13:34;6.90;1.00
39951;DHT22;25629;51.444;-2.606;2024-03-08T08:16:00;6.90;1.00
39951;DHT22;25629;51.444;-2.606;2024-03-08T08:18:25;6.90;1.00
39951;DHT22;25629;51.444;-2.606;2024-03-08T08:20:51;6.90;99.90
39951;DHT22;25629;51.444;-2.606;2024-03-08T08:23:17;7.00;99.90
39951;DHT22;25629;51.444;-2.606;2024-03-08T08:25:45;7.00;99.90
39951;DHT22;25629;51.444;-2.606;2024-03-08T08:28:10;7.00;99.90
39951;DHT22;25629;51.444;-2.606;2024-03-08T08:30:38;7.10;99.90
39951;DHT22;25629;51.444;-2.606;2024-03-08T08:33:03;7.20;99.90
39951;DHT22;25629;51.444;-2.606;2024-03-08T08:35:31;7.20;99.90
39951;DHT22;25629;51.444;-2.606;2024-03-08T08:37:57;7.20;99.90
39951;DHT22;25629;51.444;-2.606;2024-03-08T08:40:24;7.20;99.90
39951;DHT22;25629;51.444;-2.606;2024-03-08T08:42:53;7.30;99.90
39951;DHT22;25629;51.444;-2.606;2024-03-08T08:45:18;7.30;99.90
39951;DHT22;25629;51.444;-2.606;2024-03-08T08:47:44;7.40;99.90
39951;DHT22;25629;51.444;-2.606;2024-03-08T08:50:10;7.40;99.90
39951;DHT22;25629;51.444;-2.606;2024-03-08T08:52:39;7.40;60.00
39951;DHT22;25629;51.444;-2.606;2024-03-08T08:55:05;7.40;39.40
39951;DHT22;25629;51.444;-2.606;2024-03-08T08:57:32;7.40;1.00
39951;DHT22;25629;51.444;-2.606;2024-03-08T08:59:58;7.50;1.00
39951;DHT22;25629;51.444;-2.606;2024-03-08T09:02:25;7.50;1.00
39951;DHT22;25629;51.444;-2.606;2024-03-08T09:04:51;7.50;1.00
39951;DHT22;25629;51.444;-2.606;2024-03-08T09:07:17;7.60;1.00
39951;DHT22;25629;51.444;-2.606;2024-03-08T09:09:44;7.70;99.90
39951;DHT22;25629;51.444;-2.606;2024-03-08T09:12:10;7.80;99.90
39951;DHT22;25629;51.444;-2.606;2024-03-08T09:14:40;8.00;69.70
39951;DHT22;25629;51.444;-2.606;2024-03-08T09:17:05;8.00;99.90
39951;DHT22;25629;51.444;-2.606;2024-03-08T09:19:37;8.10;99.90
39951;DHT22;25629;51.444;-2.606;2024-03-08T09:22:03;8.20;1.00
39951;DHT22;25629;51.444;-2.606;2024-03-08T09:24:29;8.20;99.90
39951;DHT22;25629;51.444;-2.606;2024-03-08T09:26:56;8.20;99.90
39951;DHT22;25629;51.444;-2.606;2024-03-08T09:29:24;8.20;99.90
39951;DHT22;25629;51.444;-2.606;2024-03-08T09:31:49;8.20;1.00
39951;DHT22;25629;51.444;-2.606;2024-03-08T09:34:15;8.40;99.90
39951;DHT22;25629;51.444;-2.606;2024-03-08T09:36:41;8.60;99.90
39951;DHT22;25629;51.444;-2.606;2024-03-08T09:39:06;8.70;99.90
39951;DHT22;25629;51.444;-2.606;2024-03-08T09:41:33;8.80;1.00
39951;DHT22;25629;51.444;-2.606;2024-03-08T09:44:00;8.80;99.90
39951;DHT22;25629;51.444;-2.606;2024-03-08T09:46:25;8.80;99.90
39951;DHT22;25629;51.444;-2.606;2024-03-08T09:48:52;8.90;99.90
39951;DHT22;25629;51.444;-2.606;2024-03-08T09:51:20;8.90;99.90
39951;DHT22;25629;51.444;-2.606;2024-03-08T09:53:49;9.10;99.90
39951;DHT22;25629;51.444;-2.606;2024-03-08T09:56:14;9.30;99.90
39951;DHT22;25629;51.444;-2.606;2024-03-08T09:58:40;9.40;1.00
39951;DHT22;25629;51.444;-2.606;2024-03-08T10:01:24;9.40;99.90
39951;DHT22;25629;51.444;-2.606;2024-03-08T10:03:51;9.20;99.90
39951;DHT22;25629;51.444;-2.606;2024-03-08T10:06:21;9.30;99.90
39951;DHT22;25629;51.444;-2.606;2024-03-08T10:08:47;9.20;99.90
39951;DHT22;25629;51.444;-2.606;2024-03-08T10:11:13;9.40;99.90
39951;DHT22;25629;51.444;-2.606;2024-03-08T10:13:39;9.70;99.90
39951;DHT22;25629;51.444;-2.606;2024-03-08T10:16:06;9.80;1.00
39951;DHT22;25629;51.444;-2.606;2024-03-08T10:18:32;9.90;99.90
39951;DHT22;25629;51.444;-2.606;2024-03-08T10:23:30;9.80;99.90
39951;DHT22;25629;51.444;-2.606;2024-03-08T10:25:55;10.00;99.90
39951;DHT22;25629;51.444;-2.606;2024-03-08T10:28:23;10.00;99.90
39951;DHT22;25629;51.444;-2.606;2024-03-08T10:30:50;10.10;99.90
39951;DHT22;25629;51.444;-2.606;2024-03-08T10:33:16;10.00;99.90
39951;DHT22;25629;51.444;-2.606;2024-03-08T10:35:41;9.90;99.90
39951;DHT22;25629;51.444;-2.606;2024-03-08T10:38:07;9.90;99.90
39951;DHT22;25629;51.444;-2.606;2024-03-08T10:40:36;9.90;99.90
39951;DHT22;25629;51.444;-2.606;2024-03-08T10:43:03;10.10;99.90
39951;DHT22;25629;51.444;-2.606;2024-03-08T10:48:19;10.50;1.00
39951;DHT22;25629;51.444;-2.606;2024-03-08T10:50:50;10.70;1.00
39951;DHT22;25629;51.444;-2.606;2024-03-08T10:53:18;10.80;1.00
39951;DHT22;25629;51.444;-2.606;2024-03-08T10:55:46;10.80;1.00
39951;DHT22;25629;51.444;-2.606;2024-03-08T10:58:12;10.90;99.90
39951;DHT22;25629;51.444;-2.606;2024-03-08T11:00:38;11.30;99.90
39951;DHT22;25629;51.444;-2.606;2024-03-08T11:03:04;11.50;99.90
39951;DHT22;25629;51.444;-2.606;2024-03-08T11:05:40;11.70;99.90
39951;DHT22;25629;51.444;-2.606;2024-03-08T11:10:46;11.60;99.90
39951;DHT22;25629;51.444;-2.606;2024-03-08T11:13:32;11.90;99.90
39951;DHT22;25629;51.444;-2.606;2024-03-08T11:15:57;12.20;99.90
39951;DHT22;25629;51.444;-2.606;2024-03-08T11:18:24;12.30;99.90
39951;DHT22;25629;51.444;-2.606;2024-03-08T11:20:51;12.20;99.90
39951;DHT22;25629;51.444;-2.606;2024-03-08T11:23:19;12.00;99.90
39951;DHT22;25629;51.444;-2.606;2024-03-08T11:25:48;11.90;99.90
39951;DHT22;25629;51.444;-2.606;2024-03-08T11:30:44;11.30;99.90
39951;DHT22;25629;51.444;-2.606;2024-03-08T11:33:16;11.10;99.90
39951;DHT22;25629;51.444;-2.606;2024-03-08T11:35:42;11.10;99.90
39951;DHT22;25629;51.444;-2.606;2024-03-08T11:38:11;11.20;99.90
39951;DHT22;25629;51.444;-2.606;2024-03-08T11:40:38;11.60;99.90
39951;DHT22;25629;51.444;-2.606;2024-03-08T11:43:05;11.90;99.90
39951;DHT22;25629;51.444;-2.606;2024-03-08T11:45:35;12.00;92.20
39951;DHT22;25629;51.444;-2.606;2024-03-08T11:48:06;11.90;94.20
39951;DHT22;25629;51.444;-2.606;2024-03-08T11:50:32;11.80;82.90
39951;DHT22;25629;51.444;-2.606;2024-03-08T11:53:02;11.80;91.40
39951;DHT22;25629;51.444;-2.606;2024-03-08T11:55:29;11.60;70.30
39951;DHT22;25629;51.444;-2.606;2024-03-08T11:58:02;11.50;96.20
39951;DHT22;25629;51.444;-2.606;2024-03-08T12:00:27;11.50;99.90
39951;DHT22;25629;51.444;-2.606;2024-03-08T12:05:29;12.00;96.00
39951;DHT22;25629;51.444;-2.606;2024-03-08T12:07:57;12.10;76.50
39951;DHT22;25629;51.444;-2.606;2024-03-08T12:10:23;12.20;75.90
39951;DHT22;25629;51.444;-2.606;2024-03-08T12:12:53;12.30;65.40
39951;DHT22;25629;51.444;-2.606;2024-03-08T12:15:20;12.60;76.20
39951;DHT22;25629;51.444;-2.606;2024-03-08T12:17:52;12.80;36.00
39951;DHT22;25629;51.444;-2.606;2024-03-08T12:20:18;12.80;21.30
39951;DHT22;25629;51.444;-2.606;2024-03-08T12:22:47;12.70;7.00
39951;DHT22;25629;51.444;-2.606;2024-03-08T12:25:13;12.60;1.70
39951;DHT22;25629;51.444;-2.606;2024-03-08T12:27:39;12.70;1.80
39951;DHT22;25629;51.444;-2.606;2024-03-08T12:30:21;12.90;1.00
39951;DHT22;25629;51.444;-2.606;2024-03-08T12:33:05;12.90;1.00
39951;DHT22;25629;51.444;-2.606;2024-03-08T12:35:31;12.90;1.00
39951;DHT22;25629;51.444;-2.606;2024-03-08T12:37:59;13.00;1.00
39951;DHT22;25629;51.444;-2.606;2024-03-08T12:40:29;13.00;1.00
39951;DHT22;25629;51.444;-2.606;2024-03-08T12:42:57;13.10;1.00
39951;DHT22;25629;51.444;-2.606;2024-03-08T12:45:23;13.00;1.00
39951;DHT22;25629;51.444;-2.606;2024-03-08T12:47:53;13.00;1.00
39951;DHT22;25629;51.444;-2.606;2024-03-08T12:50:19;13.10;1.00
39951;DHT22;25629;51.444;-2.606;2024-03-08T12:52:45;13.40;1.00
39951;DHT22;25629;51.444;-2.606;2024-03-08T12:55:10;13.70;1.00
39951;DHT22;25629;51.444;-2.606;2024-03-08T12:57:37;14.30;1.00
39951;DHT22;25629;51.444;-2.606;2024-03-08T13:00:03;14.50;1.00
39951;DHT22;25629;51.444;-2.606;2024-03-08T13:02:29;14.80;1.00
39951;DHT22;25629;51.444;-2.606;2024-03-08T13:04:56;14.80;1.00
39951;DHT22;25629;51.444;-2.606;2024-03-08T13:07:25;15.10;1.00
39951;DHT22;25629;51.444;-2.606;2024-03-08T13:09:54;14.90;1.00
39951;DHT22;25629;51.444;-2.606;2024-03-08T13:12:20;14.70;1.00
39951;DHT22;25629;51.444;-2.606;2024-03-08T13:14:46;14.80;1.00
39951;DHT22;25629;51.444;-2.606;2024-03-08T13:17:13;15.00;1.00
39951;DHT22;25629;51.444;-2.606;2024-03-08T13:19:39;14.90;1.00
39951;DHT22;25629;51.444;-2.606;2024-03-08T13:22:04;15.40;1.00
39951;DHT22;25629;51.444;-2.606;2024-03-08T13:24:30;15.50;99.90
39951;DHT22;25629;51.444;-2.606;2024-03-08T13:26:56;15.80;99.90
39951;DHT22;25629;51.444;-2.606;2024-03-08T13:29:23;16.30;99.90
39951;DHT22;25629;51.444;-2.606;2024-03-08T13:31:49;16.20;99.90
39951;DHT22;25629;51.444;-2.606;2024-03-08T13:34:17;16.10;99.90
39951;DHT22;25629;51.444;-2.606;2024-03-08T13:36:43;16.00;99.90
39951;DHT22;25629;51.444;-2.606;2024-03-08T13:39:10;16.00;99.90
39951;DHT22;25629;51.444;-2.606;2024-03-08T13:41:46;16.20;99.90
39951;DHT22;25629;51.444;-2.606;2024-03-08T13:44:12;16.10;99.90
39951;DHT22;25629;51.444;-2.606;2024-03-08T13:46:56;15.70;99.90
39951;DHT22;25629;51.444;-2.606;2024-03-08T13:49:23;15.10;99.90
39951;DHT22;25629;51.444;-2.606;2024-03-08T13:51:49;15.00;99.90
39951;DHT22;25629;51.444;-2.606;2024-03-08T13:54:15;15.00;99.90
39951;DHT22;25629;51.444;-2.606;2024-03-08T13:56:41;14.90;99.90
39951;DHT22;25629;51.444;-2.606;2024-03-08T13:59:09;14.90;99.90
39951;DHT22;25629;51.444;-2.606;2024-03-08T14:01:35;14.60;99.90
39951;DHT22;25629;51.444;-2.606;2024-03-08T14:04:01;14.40;99.90
39951;DHT22;25629;51.444;-2.606;2024-03-08T14:06:26;14.10;99.90
39951;DHT22;25629;51.444;-2.606;2024-03-08T14:08:52;14.20;99.90
39951;DHT22;25629;51.444;-2.606;2024-03-08T14:11:18;14.80;99.90
39951;DHT22;25629;51.444;-2.606;2024-03-08T14:13:44;15.10;99.90
39951;DHT22;25629;51.444;-2.606;2024-03-08T14:16:11;15.00;99.90
39951;DHT22;25629;51.444;-2.606;2024-03-08T14:18:36;14.90;99.90
39951;DHT22;25629;51.444;-2.606;2024-03-08T14:21:03;15.00;99.90
39951;DHT22;25629;51.444;-2.606;2024-03-08T14:23:29;15.00;99.90
39951;DHT22;25629;51.444;-2.606;2024-03-08T14:25:55;15.00;99.90
39951;DHT22;25629;51.444;-2.606;2024-03-08T14:28:21;15.10;99.90
39951;DHT22;25629;51.444;-2.606;2024-03-08T14:30:48;15.30;99.90
39951;DHT22;25629;51.444;-2.606;2024-03-08T14:33:14;15.80;99.90
39951;DHT22;25629;51.444;-2.606;2024-03-08T14:35:40;16.20;99.90
39951;DHT22;25629;51.444;-2.606;2024-03-08T14:38:07;16.20;99.90
39951;DHT22;25629;51.444;-2.606;2024-03-08T14:40:38;16.40;99.90
39951;DHT22;25629;51.444;-2.606;2024-03-08T14:43:04;16.50;99.90
39951;DHT22;25629;51.444;-2.606;2024-03-08T14:45:31;16.50;99.90
39951;DHT22;25629;51.444;-2.606;2024-03-08T14:47:56;16.70;99.90
39951;DHT22;25629;51.444;-2.606;2024-03-08T14:50:23;16.60;99.90
39951;DHT22;25629;51.444;-2.606;2024-03-08T14:52:49;16.50;99.90
39951;DHT22;25629;51.444;-2.606;2024-03-08T14:55:16;16.00;99.90
39951;DHT22;25629;51.444;-2.606;2024-03-08T14:57:42;15.90;99.90
39951;DHT22;25629;51.444;-2.606;2024-03-08T15:00:11;15.60;99.90
39951;DHT22;25629;51.444;-2.606;2024-03-08T15:02:42;15.80;99.90
39951;DHT22;25629;51.444;-2.606;2024-03-08T15:05:08;15.60;99.90
39951;DHT22;25629;51.444;-2.606;2024-03-08T15:07:39;15.50;99.90
39951;DHT22;25629;51.444;-2.606;2024-03-08T15:10:09;15.40;99.90
39951;DHT22;25629;51.444;-2.606;2024-03-08T15:12:41;15.30;99.90
39951;DHT22;25629;51.444;-2.606;2024-03-08T15:15:08;15.50;99.90
39951;DHT22;25629;51.444;-2.606;2024-03-08T15:17:34;15.70;99.90
39951;DHT22;25629;51.444;-2.606;2024-03-08T15:20:03;15.60;99.90
39951;DHT22;25629;51.444;-2.606;2024-03-08T15:22:29;15.10;99.90
39951;DHT22;25629;51.444;-2.606;2024-03-08T15:24:55;14.40;99.90
39951;DHT22;25629;51.444;-2.606;2024-03-08T15:27:23;14.00;99.90
39951;DHT22;25629;51.444;-2.606;2024-03-08T15:29:49;13.80;99.90
39951;DHT22;25629;51.444;-2.606;2024-03-08T15:32:17;13.70;99.90
39951;DHT22;25629;51.444;-2.606;2024-03-08T15:34:46;13.60;99.90
39951;DHT22;25629;51.444;-2.606;2024-03-08T15:37:12;13.80;99.90
39951;DHT22;25629;51.444;-2.606;2024-03-08T15:39:45;14.30;99.90